Terminal Aerodrome Forecast
Issued by NWS

Home | Current Version | Previous Version | Text Only | Print | Product List | Glossary On
Versions: 1 2 3 4 5 6 7 8 9 10 11 12 13 14 15 16
000
FTUS43 KIND 260520
TAFBMG
TAF
KBMG 260520Z 2606/2706 VRB05KT P6SM FEW250
     FM261500 18008KT P6SM FEW250
     FM261900 21011KT P6SM SCT150
     FM262300 21008KT P6SM BKN110
      AMD LTD TO CLD VIS AND WIND TIL 261400=

USA.gov is the U.S. government's official web portal to all federal, state and local government web resources and services.